sensor_id;sensor_type;location;lat;lon;timestamp;temperature;humidity
17831;DHT22;9040;51.332;12.406;2022-09-21T00:00:52;10.90;99.90
17831;DHT22;9040;51.332;12.406;2022-09-21T00:03:19;10.90;99.90
17831;DHT22;9040;51.332;12.406;2022-09-21T00:05:46;10.90;99.90
17831;DHT22;9040;51.332;12.406;2022-09-21T00:08:13;10.80;99.90
17831;DHT22;9040;51.332;12.406;2022-09-21T00:10:40;10.80;99.90
17831;DHT22;9040;51.332;12.406;2022-09-21T00:13:11;10.80;99.90
17831;DHT22;9040;51.332;12.406;2022-09-21T00:15:38;10.80;99.90
17831;DHT22;9040;51.332;12.406;2022-09-21T00:18:06;10.70;99.90
17831;DHT22;9040;51.332;12.406;2022-09-21T00:20:33;10.70;99.90
17831;DHT22;9040;51.332;12.406;2022-09-21T00:22:59;10.70;99.90
17831;DHT22;9040;51.332;12.406;2022-09-21T00:25:26;10.70;99.90
17831;DHT22;9040;51.332;12.406;2022-09-21T00:27:53;10.70;99.90
17831;DHT22;9040;51.332;12.406;2022-09-21T00:30:21;10.70;99.90
17831;DHT22;9040;51.332;12.406;2022-09-21T00:32:48;10.70;99.90
17831;DHT22;9040;51.332;12.406;2022-09-21T00:35:15;10.70;99.90
17831;DHT22;9040;51.332;12.406;2022-09-21T00:37:42;10.70;99.90
17831;DHT22;9040;51.332;12.406;2022-09-21T00:40:09;10.60;99.90
17831;DHT22;9040;51.332;12.406;2022-09-21T00:42:36;10.60;99.90
17831;DHT22;9040;51.332;12.406;2022-09-21T00:45:05;10.60;99.90
17831;DHT22;9040;51.332;12.406;2022-09-21T00:47:35;10.50;99.90
17831;DHT22;9040;51.332;12.406;2022-09-21T00:50:06;10.50;99.90
17831;DHT22;9040;51.332;12.406;2022-09-21T00:52:38;10.40;99.90
17831;DHT22;9040;51.332;12.406;2022-09-21T00:55:10;10.40;99.90
17831;DHT22;9040;51.332;12.406;2022-09-21T00:57:39;10.50;99.90
17831;DHT22;9040;51.332;12.406;2022-09-21T01:00:08;10.40;99.90
17831;DHT22;9040;51.332;12.406;2022-09-21T01:02:37;10.50;99.90
17831;DHT22;9040;51.332;12.406;2022-09-21T01:05:05;10.40;99.90
17831;DHT22;9040;51.332;12.406;2022-09-21T01:07:35;10.40;99.90
17831;DHT22;9040;51.332;12.406;2022-09-21T01:10:05;10.40;99.90
17831;DHT22;9040;51.332;12.406;2022-09-21T01:12:45;10.30;99.90
17831;DHT22;9040;51.332;12.406;2022-09-21T01:15:21;10.30;99.90
17831;DHT22;9040;51.332;12.406;2022-09-21T01:17:58;10.20;99.90
17831;DHT22;9040;51.332;12.406;2022-09-21T01:20:58;10.20;99.90
17831;DHT22;9040;51.332;12.406;2022-09-21T01:23:41;10.10;99.90
17831;DHT22;9040;51.332;12.406;2022-09-21T01:26:18;10.10;99.90
17831;DHT22;9040;51.332;12.406;2022-09-21T01:29:15;10.10;99.90
17831;DHT22;9040;51.332;12.406;2022-09-21T01:31:50;10.10;99.90
17831;DHT22;9040;51.332;12.406;2022-09-21T01:34:24;10.10;99.90
17831;DHT22;9040;51.332;12.406;2022-09-21T01:36:55;10.10;99.90
17831;DHT22;9040;51.332;12.406;2022-09-21T01:39:24;10.20;99.90
17831;DHT22;9040;51.332;12.406;2022-09-21T01:41:52;10.10;99.90
17831;DHT22;9040;51.332;12.406;2022-09-21T01:44:24;10.20;99.90
17831;DHT22;9040;51.332;12.406;2022-09-21T01:46:52;10.10;99.90
17831;DHT22;9040;51.332;12.406;2022-09-21T01:49:22;10.20;99.90
17831;DHT22;9040;51.332;12.406;2022-09-21T01:51:54;10.10;99.90
17831;DHT22;9040;51.332;12.406;2022-09-21T01:54:27;10.10;99.90
17831;DHT22;9040;51.332;12.406;2022-09-21T01:57:01;10.10;99.90
17831;DHT22;9040;51.332;12.406;2022-09-21T01:59:39;10.10;99.90
17831;DHT22;9040;51.332;12.406;2022-09-21T02:02:12;10.00;99.90
17831;DHT22;9040;51.332;12.406;2022-09-21T02:04:39;10.00;99.90
17831;DHT22;9040;51.332;12.406;2022-09-21T02:07:06;10.00;99.90
17831;DHT22;9040;51.332;12.406;2022-09-21T02:09:35;10.00;99.90
17831;DHT22;9040;51.332;12.406;2022-09-21T02:12:03;9.90;99.90
17831;DHT22;9040;51.332;12.406;2022-09-21T02:14:32;10.00;99.90
17831;DHT22;9040;51.332;12.406;2022-09-21T02:17:06;10.00;99.90
17831;DHT22;9040;51.332;12.406;2022-09-21T02:19:43;10.00;99.90
17831;DHT22;9040;51.332;12.406;2022-09-21T02:22:14;9.90;99.90
17831;DHT22;9040;51.332;12.406;2022-09-21T02:24:45;9.90;99.90
17831;DHT22;9040;51.332;12.406;2022-09-21T02:27:22;9.90;99.90
17831;DHT22;9040;51.332;12.406;2022-09-21T02:29:57;9.80;99.90
17831;DHT22;9040;51.332;12.406;2022-09-21T02:32:29;9.80;99.90
17831;DHT22;9040;51.332;12.406;2022-09-21T02:35:07;9.80;99.90
17831;DHT22;9040;51.332;12.406;2022-09-21T02:37:41;9.80;99.90
17831;DHT22;9040;51.332;12.406;2022-09-21T02:40:19;9.70;99.90
17831;DHT22;9040;51.332;12.406;2022-09-21T02:42:51;9.70;99.90
17831;DHT22;9040;51.332;12.406;2022-09-21T02:45:23;9.70;99.90
17831;DHT22;9040;51.332;12.406;2022-09-21T02:47:52;9.70;99.90
17831;DHT22;9040;51.332;12.406;2022-09-21T02:50:25;9.70;99.90
17831;DHT22;9040;51.332;12.406;2022-09-21T02:52:58;9.80;99.90
17831;DHT22;9040;51.332;12.406;2022-09-21T02:55:26;9.80;99.90
17831;DHT22;9040;51.332;12.406;2022-09-21T02:57:54;9.80;99.90
17831;DHT22;9040;51.332;12.406;2022-09-21T03:00:23;9.80;99.90
17831;DHT22;9040;51.332;12.406;2022-09-21T03:02:50;9.70;99.90
17831;DHT22;9040;51.332;12.406;2022-09-21T03:05:16;9.70;99.90
17831;DHT22;9040;51.332;12.406;2022-09-21T03:07:43;9.70;99.90
17831;DHT22;9040;51.332;12.406;2022-09-21T03:10:10;9.70;99.90
17831;DHT22;9040;51.332;12.406;2022-09-21T03:12:37;9.60;99.90
17831;DHT22;9040;51.332;12.406;2022-09-21T03:15:05;9.60;99.90
17831;DHT22;9040;51.332;12.406;2022-09-21T03:17:33;9.60;99.90
17831;DHT22;9040;51.332;12.406;2022-09-21T03:20:00;9.60;99.90
17831;DHT22;9040;51.332;12.406;2022-09-21T03:22:27;9.50;99.90
17831;DHT22;9040;51.332;12.406;2022-09-21T03:24:54;9.50;99.90
17831;DHT22;9040;51.332;12.406;2022-09-21T03:27:22;9.50;99.90
17831;DHT22;9040;51.332;12.406;2022-09-21T03:29:49;9.50;99.90
17831;DHT22;9040;51.332;12.406;2022-09-21T03:32:17;9.50;99.90
17831;DHT22;9040;51.332;12.406;2022-09-21T03:34:45;9.50;99.90
17831;DHT22;9040;51.332;12.406;2022-09-21T03:37:11;9.40;99.90
17831;DHT22;9040;51.332;12.406;2022-09-21T03:39:38;9.40;99.90
17831;DHT22;9040;51.332;12.406;2022-09-21T03:42:05;9.30;99.90
17831;DHT22;9040;51.332;12.406;2022-09-21T03:44:34;9.30;99.90
17831;DHT22;9040;51.332;12.406;2022-09-21T03:47:01;9.40;99.90
17831;DHT22;9040;51.332;12.406;2022-09-21T03:49:31;9.40;99.90
17831;DHT22;9040;51.332;12.406;2022-09-21T03:52:00;9.30;99.90
17831;DHT22;9040;51.332;12.406;2022-09-21T03:54:26;9.30;99.90
17831;DHT22;9040;51.332;12.406;2022-09-21T03:56:53;9.30;99.90
17831;DHT22;9040;51.332;12.406;2022-09-21T03:59:20;9.30;99.90
17831;DHT22;9040;51.332;12.406;2022-09-21T04:01:47;9.30;99.90
17831;DHT22;9040;51.332;12.406;2022-09-21T04:04:14;9.20;99.90
17831;DHT22;9040;51.332;12.406;2022-09-21T04:06:41;9.20;99.90
17831;DHT22;9040;51.332;12.406;2022-09-21T04:09:12;9.20;99.90
17831;DHT22;9040;51.332;12.406;2022-09-21T04:11:38;9.20;99.90
17831;DHT22;9040;51.332;12.406;2022-09-21T04:14:05;9.20;99.90
17831;DHT22;9040;51.332;12.406;2022-09-21T04:16:32;9.20;99.90
17831;DHT22;9040;51.332;12.406;2022-09-21T04:18:59;9.30;99.90
17831;DHT22;9040;51.332;12.406;2022-09-21T04:21:26;9.20;99.90
17831;DHT22;9040;51.332;12.406;2022-09-21T04:23:52;9.20;99.90
17831;DHT22;9040;51.332;12.406;2022-09-21T04:26:22;9.20;99.90
17831;DHT22;9040;51.332;12.406;2022-09-21T04:28:50;9.20;99.90
17831;DHT22;9040;51.332;12.406;2022-09-21T04:31:17;9.30;99.90
17831;DHT22;9040;51.332;12.406;2022-09-21T04:33:47;9.30;99.90
17831;DHT22;9040;51.332;12.406;2022-09-21T04:36:14;9.30;99.90
17831;DHT22;9040;51.332;12.406;2022-09-21T04:38:41;9.30;99.90
17831;DHT22;9040;51.332;12.406;2022-09-21T04:41:07;9.20;99.90
17831;DHT22;9040;51.332;12.406;2022-09-21T04:43:36;9.20;99.90
17831;DHT22;9040;51.332;12.406;2022-09-21T04:46:06;9.10;99.90
17831;DHT22;9040;51.332;12.406;2022-09-21T04:48:33;9.10;99.90
17831;DHT22;9040;51.332;12.406;2022-09-21T04:51:00;9.10;99.90
17831;DHT22;9040;51.332;12.406;2022-09-21T04:53:27;9.10;99.90
17831;DHT22;9040;51.332;12.406;2022-09-21T04:55:54;9.20;99.90
17831;DHT22;9040;51.332;12.406;2022-09-21T04:58:21;9.20;99.90
17831;DHT22;9040;51.332;12.406;2022-09-21T05:00:51;9.20;99.90
17831;DHT22;9040;51.332;12.406;2022-09-21T05:03:19;9.20;99.90
17831;DHT22;9040;51.332;12.406;2022-09-21T05:05:48;9.20;99.90
17831;DHT22;9040;51.332;12.406;2022-09-21T05:08:16;9.20;99.90
17831;DHT22;9040;51.332;12.406;2022-09-21T05:11:03;9.30;99.90
17831;DHT22;9040;51.332;12.406;2022-09-21T05:13:29;9.30;99.90
17831;DHT22;9040;51.332;12.406;2022-09-21T05:15:57;9.30;99.90
17831;DHT22;9040;51.332;12.406;2022-09-21T05:18:24;9.20;99.90
17831;DHT22;9040;51.332;12.406;2022-09-21T05:20:52;9.20;99.90
17831;DHT22;9040;51.332;12.406;2022-09-21T05:23:19;9.20;99.90
17831;DHT22;9040;51.332;12.406;2022-09-21T05:25:46;9.20;99.90
17831;DHT22;9040;51.332;12.406;2022-09-21T05:28:14;9.20;99.90
17831;DHT22;9040;51.332;12.406;2022-09-21T05:30:43;9.30;99.90
17831;DHT22;9040;51.332;12.406;2022-09-21T05:33:13;9.30;99.90
17831;DHT22;9040;51.332;12.406;2022-09-21T05:35:47;9.20;99.90
17831;DHT22;9040;51.332;12.406;2022-09-21T05:38:19;9.20;99.90
17831;DHT22;9040;51.332;12.406;2022-09-21T05:40:47;9.10;99.90
17831;DHT22;9040;51.332;12.406;2022-09-21T05:43:15;9.10;99.90
17831;DHT22;9040;51.332;12.406;2022-09-21T05:45:44;9.20;99.90
17831;DHT22;9040;51.332;12.406;2022-09-21T05:48:15;9.30;99.90
17831;DHT22;9040;51.332;12.406;2022-09-21T05:50:52;9.40;99.90
17831;DHT22;9040;51.332;12.406;2022-09-21T05:53:37;9.40;99.90
17831;DHT22;9040;51.332;12.406;2022-09-21T05:56:15;9.40;99.90
17831;DHT22;9040;51.332;12.406;2022-09-21T05:58:52;9.40;99.90
17831;DHT22;9040;51.332;12.406;2022-09-21T06:01:32;9.30;99.90
17831;DHT22;9040;51.332;12.406;2022-09-21T06:04:02;9.30;99.90
17831;DHT22;9040;51.332;12.406;2022-09-21T06:06:29;9.30;99.90
17831;DHT22;9040;51.332;12.406;2022-09-21T06:08:56;9.40;99.90
17831;DHT22;9040;51.332;12.406;2022-09-21T06:11:23;9.40;99.90
17831;DHT22;9040;51.332;12.406;2022-09-21T06:13:49;9.50;99.90
17831;DHT22;9040;51.332;12.406;2022-09-21T06:16:16;9.50;99.90
17831;DHT22;9040;51.332;12.406;2022-09-21T06:18:43;9.60;99.90
17831;DHT22;9040;51.332;12.406;2022-09-21T06:21:11;9.60;99.90
17831;DHT22;9040;51.332;12.406;2022-09-21T06:23:38;9.60;99.90
17831;DHT22;9040;51.332;12.406;2022-09-21T06:26:05;9.70;99.90
17831;DHT22;9040;51.332;12.406;2022-09-21T06:28:32;9.70;99.90
17831;DHT22;9040;51.332;12.406;2022-09-21T06:30:58;9.60;99.90
17831;DHT22;9040;51.332;12.406;2022-09-21T06:33:25;9.50;99.90
17831;DHT22;9040;51.332;12.406;2022-09-21T06:35:53;9.50;99.90
17831;DHT22;9040;51.332;12.406;2022-09-21T06:38:22;9.50;99.90
17831;DHT22;9040;51.332;12.406;2022-09-21T06:40:49;9.50;99.90
17831;DHT22;9040;51.332;12.406;2022-09-21T06:43:17;9.50;99.90
17831;DHT22;9040;51.332;12.406;2022-09-21T06:45:51;9.60;99.90
17831;DHT22;9040;51.332;12.406;2022-09-21T06:48:18;9.60;99.90
17831;DHT22;9040;51.332;12.406;2022-09-21T06:50:45;9.70;99.90
17831;DHT22;9040;51.332;12.406;2022-09-21T06:53:12;9.70;99.90
17831;DHT22;9040;51.332;12.406;2022-09-21T06:55:41;9.70;99.90
17831;DHT22;9040;51.332;12.406;2022-09-21T06:58:08;9.80;99.90
17831;DHT22;9040;51.332;12.406;2022-09-21T07:00:35;9.90;99.90
17831;DHT22;9040;51.332;12.406;2022-09-21T07:03:01;9.90;99.90
17831;DHT22;9040;51.332;12.406;2022-09-21T07:05:28;9.90;99.90
17831;DHT22;9040;51.332;12.406;2022-09-21T07:07:56;10.10;99.90
17831;DHT22;9040;51.332;12.406;2022-09-21T07:10:23;10.20;99.90
17831;DHT22;9040;51.332;12.406;2022-09-21T07:12:52;10.20;99.90
17831;DHT22;9040;51.332;12.406;2022-09-21T07:15:19;10.20;99.90
17831;DHT22;9040;51.332;12.406;2022-09-21T07:17:46;10.20;99.90
17831;DHT22;9040;51.332;12.406;2022-09-21T07:20:14;10.30;99.90
17831;DHT22;9040;51.332;12.406;2022-09-21T07:22:41;10.30;99.90
17831;DHT22;9040;51.332;12.406;2022-09-21T07:25:08;10.40;99.90
17831;DHT22;9040;51.332;12.406;2022-09-21T07:27:35;10.50;99.90
17831;DHT22;9040;51.332;12.406;2022-09-21T07:30:05;10.50;99.90
17831;DHT22;9040;51.332;12.406;2022-09-21T07:32:33;10.50;99.90
17831;DHT22;9040;51.332;12.406;2022-09-21T07:35:00;10.50;99.90
17831;DHT22;9040;51.332;12.406;2022-09-21T07:37:27;10.60;99.90
17831;DHT22;9040;51.332;12.406;2022-09-21T07:39:56;10.70;99.90
17831;DHT22;9040;51.332;12.406;2022-09-21T07:42:23;10.80;99.90
17831;DHT22;9040;51.332;12.406;2022-09-21T07:44:50;10.80;99.90
17831;DHT22;9040;51.332;12.406;2022-09-21T07:47:19;10.90;99.90
17831;DHT22;9040;51.332;12.406;2022-09-21T07:49:46;10.90;99.90
17831;DHT22;9040;51.332;12.406;2022-09-21T07:52:13;10.90;99.90
17831;DHT22;9040;51.332;12.406;2022-09-21T07:54:40;10.90;99.90
17831;DHT22;9040;51.332;12.406;2022-09-21T07:57:07;11.00;99.90
17831;DHT22;9040;51.332;12.406;2022-09-21T07:59:51;11.00;99.90
17831;DHT22;9040;51.332;12.406;2022-09-21T08:02:22;11.00;99.90
17831;DHT22;9040;51.332;12.406;2022-09-21T08:04:49;11.10;99.90
17831;DHT22;9040;51.332;12.406;2022-09-21T08:07:16;11.10;99.90
17831;DHT22;9040;51.332;12.406;2022-09-21T08:09:43;11.10;99.90
17831;DHT22;9040;51.332;12.406;2022-09-21T08:12:14;11.20;99.90
17831;DHT22;9040;51.332;12.406;2022-09-21T08:14:42;11.20;99.90
17831;DHT22;9040;51.332;12.406;2022-09-21T08:17:08;11.20;99.90
17831;DHT22;9040;51.332;12.406;2022-09-21T08:19:37;11.30;99.90
17831;DHT22;9040;51.332;12.406;2022-09-21T08:22:03;11.40;99.90
17831;DHT22;9040;51.332;12.406;2022-09-21T08:24:30;11.40;99.90
17831;DHT22;9040;51.332;12.406;2022-09-21T08:26:57;11.40;99.90
17831;DHT22;9040;51.332;12.406;2022-09-21T08:29:25;11.50;99.90
17831;DHT22;9040;51.332;12.406;2022-09-21T08:31:51;11.50;99.90
17831;DHT22;9040;51.332;12.406;2022-09-21T08:34:18;11.60;99.90
17831;DHT22;9040;51.332;12.406;2022-09-21T08:36:47;11.70;99.90
17831;DHT22;9040;51.332;12.406;2022-09-21T08:39:13;11.80;99.90
17831;DHT22;9040;51.332;12.406;2022-09-21T08:41:56;11.90;99.90
17831;DHT22;9040;51.332;12.406;2022-09-21T08:44:30;12.00;99.90
17831;DHT22;9040;51.332;12.406;2022-09-21T08:47:02;12.20;99.90
17831;DHT22;9040;51.332;12.406;2022-09-21T08:49:33;12.30;99.90
17831;DHT22;9040;51.332;12.406;2022-09-21T08:52:04;12.40;99.90
17831;DHT22;9040;51.332;12.406;2022-09-21T08:54:37;12.50;99.90
17831;DHT22;9040;51.332;12.406;2022-09-21T08:57:09;12.60;99.90
17831;DHT22;9040;51.332;12.406;2022-09-21T08:59:39;12.70;99.90
17831;DHT22;9040;51.332;12.406;2022-09-21T09:05:10;12.90;99.90
17831;DHT22;9040;51.332;12.406;2022-09-21T09:08:03;12.80;99.90
17831;DHT22;9040;51.332;12.406;2022-09-21T09:10:36;12.90;99.90
17831;DHT22;9040;51.332;12.406;2022-09-21T09:13:17;13.00;99.90
17831;DHT22;9040;51.332;12.406;2022-09-21T09:15:59;13.00;99.90
17831;DHT22;9040;51.332;12.406;2022-09-21T09:18:36;13.00;99.90
17831;DHT22;9040;51.332;12.406;2022-09-21T09:21:09;13.00;99.90
17831;DHT22;9040;51.332;12.406;2022-09-21T09:23:42;13.00;99.90
17831;DHT22;9040;51.332;12.406;2022-09-21T09:26:16;13.10;99.90
17831;DHT22;9040;51.332;12.406;2022-09-21T09:28:47;13.20;99.90
17831;DHT22;9040;51.332;12.406;2022-09-21T09:31:20;13.30;99.90
17831;DHT22;9040;51.332;12.406;2022-09-21T09:33:52;13.50;99.90
17831;DHT22;9040;51.332;12.406;2022-09-21T09:36:24;13.60;99.90
17831;DHT22;9040;51.332;12.406;2022-09-21T09:38:56;13.80;99.90
17831;DHT22;9040;51.332;12.406;2022-09-21T09:41:46;13.80;99.90
17831;DHT22;9040;51.332;12.406;2022-09-21T09:44:27;13.90;99.90
17831;DHT22;9040;51.332;12.406;2022-09-21T09:47:01;14.00;99.90
17831;DHT22;9040;51.332;12.406;2022-09-21T09:49:41;13.90;99.90
17831;DHT22;9040;51.332;12.406;2022-09-21T09:52:15;13.90;99.90
17831;DHT22;9040;51.332;12.406;2022-09-21T09:54:43;13.90;99.90
17831;DHT22;9040;51.332;12.406;2022-09-21T09:57:11;13.90;99.90
17831;DHT22;9040;51.332;12.406;2022-09-21T09:59:43;13.90;99.90
17831;DHT22;9040;51.332;12.406;2022-09-21T10:02:19;13.90;99.90
17831;DHT22;9040;51.332;12.406;2022-09-21T10:04:54;14.00;99.90
17831;DHT22;9040;51.332;12.406;2022-09-21T10:07:35;14.10;99.90
17831;DHT22;9040;51.332;12.406;2022-09-21T10:10:22;14.20;99.90
17831;DHT22;9040;51.332;12.406;2022-09-21T10:12:50;14.30;99.90
17831;DHT22;9040;51.332;12.406;2022-09-21T10:15:17;14.50;99.90
17831;DHT22;9040;51.332;12.406;2022-09-21T10:17:45;14.60;99.90
17831;DHT22;9040;51.332;12.406;2022-09-21T10:20:16;14.60;99.90
17831;DHT22;9040;51.332;12.406;2022-09-21T10:22:46;14.60;99.90
17831;DHT22;9040;51.332;12.406;2022-09-21T10:25:17;14.60;99.90
17831;DHT22;9040;51.332;12.406;2022-09-21T10:27:47;14.80;99.90
17831;DHT22;9040;51.332;12.406;2022-09-21T10:30:32;14.90;99.90
17831;DHT22;9040;51.332;12.406;2022-09-21T10:32:59;14.80;99.90
17831;DHT22;9040;51.332;12.406;2022-09-21T10:35:26;14.70;99.90
17831;DHT22;9040;51.332;12.406;2022-09-21T10:38:08;14.70;99.90
17831;DHT22;9040;51.332;12.406;2022-09-21T10:40:38;14.60;99.90
17831;DHT22;9040;51.332;12.406;2022-09-21T10:43:22;14.60;99.90
17831;DHT22;9040;51.332;12.406;2022-09-21T10:45:52;14.80;99.90
17831;DHT22;9040;51.332;12.406;2022-09-21T10:48:21;15.00;99.90
17831;DHT22;9040;51.332;12.406;2022-09-21T10:50:50;15.10;99.90
17831;DHT22;9040;51.332;12.406;2022-09-21T10:53:22;15.20;99.90
17831;DHT22;9040;51.332;12.406;2022-09-21T10:55:56;15.10;99.90
17831;DHT22;9040;51.332;12.406;2022-09-21T10:58:24;15.00;99.90
17831;DHT22;9040;51.332;12.406;2022-09-21T11:00:52;14.90;99.90
17831;DHT22;9040;51.332;12.406;2022-09-21T11:03:40;14.90;99.90
17831;DHT22;9040;51.332;12.406;2022-09-21T11:06:15;14.90;99.90
17831;DHT22;9040;51.332;12.406;2022-09-21T11:08:53;14.80;99.90
17831;DHT22;9040;51.332;12.406;2022-09-21T11:11:33;14.80;99.90
17831;DHT22;9040;51.332;12.406;2022-09-21T11:14:09;14.80;99.90
17831;DHT22;9040;51.332;12.406;2022-09-21T11:16:40;15.00;99.90
17831;DHT22;9040;51.332;12.406;2022-09-21T11:19:17;15.00;99.90
17831;DHT22;9040;51.332;12.406;2022-09-21T11:21:49;15.20;99.90
17831;DHT22;9040;51.332;12.406;2022-09-21T11:24:22;15.20;99.90
17831;DHT22;9040;51.332;12.406;2022-09-21T11:26:57;15.20;99.90
17831;DHT22;9040;51.332;12.406;2022-09-21T11:29:30;15.20;99.90
17831;DHT22;9040;51.332;12.406;2022-09-21T11:32:12;15.20;99.90
17831;DHT22;9040;51.332;12.406;2022-09-21T11:35:01;15.30;99.90
17831;DHT22;9040;51.332;12.406;2022-09-21T11:37:46;15.30;99.90
17831;DHT22;9040;51.332;12.406;2022-09-21T11:40:29;15.40;99.90
17831;DHT22;9040;51.332;12.406;2022-09-21T11:43:07;15.50;99.90
17831;DHT22;9040;51.332;12.406;2022-09-21T11:45:50;15.60;99.90
17831;DHT22;9040;51.332;12.406;2022-09-21T11:48:31;15.60;99.90
17831;DHT22;9040;51.332;12.406;2022-09-21T11:51:12;15.60;99.90
17831;DHT22;9040;51.332;12.406;2022-09-21T11:54:05;15.80;99.90
17831;DHT22;9040;51.332;12.406;2022-09-21T11:56:40;16.00;99.90
17831;DHT22;9040;51.332;12.406;2022-09-21T11:59:26;16.20;99.90
17831;DHT22;9040;51.332;12.406;2022-09-21T12:02:13;16.40;99.90
17831;DHT22;9040;51.332;12.406;2022-09-21T12:04:47;16.60;99.90
17831;DHT22;9040;51.332;12.406;2022-09-21T12:10:41;16.80;99.90
17831;DHT22;9040;51.332;12.406;2022-09-21T12:13:20;17.00;99.90
17831;DHT22;9040;51.332;12.406;2022-09-21T12:16:00;17.20;99.90
17831;DHT22;9040;51.332;12.406;2022-09-21T12:18:33;18.00;99.90
17831;DHT22;9040;51.332;12.406;2022-09-21T12:21:09;18.30;99.90
17831;DHT22;9040;51.332;12.406;2022-09-21T12:23:42;18.50;99.90
17831;DHT22;9040;51.332;12.406;2022-09-21T12:26:12;19.00;99.90
17831;DHT22;9040;51.332;12.406;2022-09-21T12:28:43;19.80;99.90
17831;DHT22;9040;51.332;12.406;2022-09-21T12:31:17;20.70;99.90
17831;DHT22;9040;51.332;12.406;2022-09-21T12:33:47;21.30;99.90
17831;DHT22;9040;51.332;12.406;2022-09-21T12:36:18;21.70;99.90
17831;DHT22;9040;51.332;12.406;2022-09-21T12:38:50;21.60;99.90
17831;DHT22;9040;51.332;12.406;2022-09-21T12:41:23;20.60;99.90
17831;DHT22;9040;51.332;12.406;2022-09-21T12:43:57;19.40;99.90
17831;DHT22;9040;51.332;12.406;2022-09-21T12:46:29;18.40;99.90
17831;DHT22;9040;51.332;12.406;2022-09-21T12:48:58;17.90;99.90
17831;DHT22;9040;51.332;12.406;2022-09-21T12:51:29;18.10;99.90
17831;DHT22;9040;51.332;12.406;2022-09-21T12:56:46;18.50;99.90
17831;DHT22;9040;51.332;12.406;2022-09-21T12:59:28;18.10;99.90
17831;DHT22;9040;51.332;12.406;2022-09-21T13:02:04;17.80;99.90
17831;DHT22;9040;51.332;12.406;2022-09-21T13:04:44;17.40;99.90
17831;DHT22;9040;51.332;12.406;2022-09-21T13:07:55;17.10;99.90
17831;DHT22;9040;51.332;12.406;2022-09-21T13:10:35;17.00;99.90
17831;DHT22;9040;51.332;12.406;2022-09-21T13:13:05;17.30;99.90
17831;DHT22;9040;51.332;12.406;2022-09-21T13:15:42;17.40;99.90
17831;DHT22;9040;51.332;12.406;2022-09-21T13:18:21;17.20;99.90
17831;DHT22;9040;51.332;12.406;2022-09-21T13:20:49;17.00;99.90
17831;DHT22;9040;51.332;12.406;2022-09-21T13:23:25;16.80;99.90
17831;DHT22;9040;51.332;12.406;2022-09-21T13:26:05;16.70;99.90
17831;DHT22;9040;51.332;12.406;2022-09-21T13:28:59;16.60;99.90
17831;DHT22;9040;51.332;12.406;2022-09-21T13:31:37;16.60;99.90
17831;DHT22;9040;51.332;12.406;2022-09-21T13:34:20;16.50;99.90
17831;DHT22;9040;51.332;12.406;2022-09-21T13:37:12;16.40;99.90
17831;DHT22;9040;51.332;12.406;2022-09-21T13:39:42;16.40;99.90
17831;DHT22;9040;51.332;12.406;2022-09-21T13:42:44;16.40;99.90
17831;DHT22;9040;51.332;12.406;2022-09-21T13:45:47;16.40;99.90
17831;DHT22;9040;51.332;12.406;2022-09-21T13:48:19;16.40;99.90
17831;DHT22;9040;51.332;12.406;2022-09-21T13:50:51;16.30;99.90
17831;DHT22;9040;51.332;12.406;2022-09-21T13:53:24;16.50;99.90
17831;DHT22;9040;51.332;12.406;2022-09-21T13:55:54;17.40;99.90
17831;DHT22;9040;51.332;12.406;2022-09-21T13:58:27;18.30;99.90
17831;DHT22;9040;51.332;12.406;2022-09-21T14:00:58;19.30;99.90
17831;DHT22;9040;51.332;12.406;2022-09-21T14:03:31;20.60;99.90
17831;DHT22;9040;51.332;12.406;2022-09-21T14:06:06;21.40;99.90
17831;DHT22;9040;51.332;12.406;2022-09-21T14:08:36;21.60;99.90
17831;DHT22;9040;51.332;12.406;2022-09-21T14:11:06;21.80;99.90
17831;DHT22;9040;51.332;12.406;2022-09-21T14:13:36;22.90;99.90
17831;DHT22;9040;51.332;12.406;2022-09-21T14:16:26;23.20;99.90
17831;DHT22;9040;51.332;12.406;2022-09-21T14:22:36;24.10;97.10
17831;DHT22;9040;51.332;12.406;2022-09-21T14:25:47;23.80;95.40
17831;DHT22;9040;51.332;12.406;2022-09-21T14:28:16;23.50;95.80
17831;DHT22;9040;51.332;12.406;2022-09-21T14:30:51;22.60;96.20
17831;DHT22;9040;51.332;12.406;2022-09-21T14:33:29;22.60;99.00
17831;DHT22;9040;51.332;12.406;2022-09-21T14:35:59;22.80;97.60
17831;DHT22;9040;51.332;12.406;2022-09-21T14:38:37;22.40;96.80
17831;DHT22;9040;51.332;12.406;2022-09-21T14:41:06;22.10;96.60
17831;DHT22;9040;51.332;12.406;2022-09-21T14:43:35;21.80;96.30
17831;DHT22;9040;51.332;12.406;2022-09-21T14:46:44;21.50;97.20
17831;DHT22;9040;51.332;12.406;2022-09-21T14:49:23;21.50;97.40
17831;DHT22;9040;51.332;12.406;2022-09-21T14:52:02;21.30;97.60
17831;DHT22;9040;51.332;12.406;2022-09-21T14:54:42;21.00;99.30
17831;DHT22;9040;51.332;12.406;2022-09-21T14:57:31;21.30;99.90
17831;DHT22;9040;51.332;12.406;2022-09-21T15:00:15;21.50;98.40
17831;DHT22;9040;51.332;12.406;2022-09-21T15:02:47;21.10;99.10
17831;DHT22;9040;51.332;12.406;2022-09-21T15:05:19;20.40;99.70
17831;DHT22;9040;51.332;12.406;2022-09-21T15:08:01;19.80;99.90
17831;DHT22;9040;51.332;12.406;2022-09-21T15:10:53;19.30;99.90
17831;DHT22;9040;51.332;12.406;2022-09-21T15:14:05;19.50;99.90
17831;DHT22;9040;51.332;12.406;2022-09-21T15:16:39;20.00;99.90
17831;DHT22;9040;51.332;12.406;2022-09-21T15:19:14;20.50;99.90
17831;DHT22;9040;51.332;12.406;2022-09-21T15:21:47;20.70;99.90
17831;DHT22;9040;51.332;12.406;2022-09-21T15:24:20;20.30;99.40
17831;DHT22;9040;51.332;12.406;2022-09-21T15:26:50;20.40;99.60
17831;DHT22;9040;51.332;12.406;2022-09-21T15:29:23;20.70;99.90
17831;DHT22;9040;51.332;12.406;2022-09-21T15:31:51;21.50;99.40
17831;DHT22;9040;51.332;12.406;2022-09-21T15:34:18;22.30;99.00
17831;DHT22;9040;51.332;12.406;2022-09-21T15:36:45;23.30;97.60
17831;DHT22;9040;51.332;12.406;2022-09-21T15:39:24;24.00;95.30
17831;DHT22;9040;51.332;12.406;2022-09-21T15:44:49;23.90;91.80
17831;DHT22;9040;51.332;12.406;2022-09-21T15:47:21;23.00;91.60
17831;DHT22;9040;51.332;12.406;2022-09-21T15:49:51;22.00;93.20
17831;DHT22;9040;51.332;12.406;2022-09-21T15:52:24;21.00;95.40
17831;DHT22;9040;51.332;12.406;2022-09-21T15:54:55;20.50;97.60
17831;DHT22;9040;51.332;12.406;2022-09-21T15:57:32;21.10;99.00
17831;DHT22;9040;51.332;12.406;2022-09-21T16:00:03;21.80;97.70
17831;DHT22;9040;51.332;12.406;2022-09-21T16:02:35;22.20;97.40
17831;DHT22;9040;51.332;12.406;2022-09-21T16:05:04;22.90;97.00
17831;DHT22;9040;51.332;12.406;2022-09-21T16:07:34;22.90;96.20
17831;DHT22;9040;51.332;12.406;2022-09-21T16:10:03;23.00;96.70
17831;DHT22;9040;51.332;12.406;2022-09-21T16:12:59;23.50;96.00
17831;DHT22;9040;51.332;12.406;2022-09-21T16:15:27;24.20;95.80
17831;DHT22;9040;51.332;12.406;2022-09-21T16:17:57;24.20;95.60
17831;DHT22;9040;51.332;12.406;2022-09-21T16:20:38;23.80;95.80
17831;DHT22;9040;51.332;12.406;2022-09-21T16:23:11;23.80;96.20